CheckWX is a tool to help pilots better visualize weather data.  It is not intended as a substitute for an official pre-flight weather briefing.

07:02:44 UTC

RJFR TAF
Kitakyūshū Airport
Kitakyūshū, Japan
TAF RJFR 190506Z 1906/2012 09005KT 9999 FEW030 BECMG 1907/1909 06005KT BECMG 1921/2000 13005KT BECMG 2003/2006 32012KT

Jun-19@
06:00 UTC

Jun-19 @ 06:00 UTC

Jun-19@
07:00 UTC

Jun-19 @ 07:00 UTC

TAF RJFR 190506Z 1906/2012 09005KT 9999 FEW030

Expired

Wind
  • 090° at 5 KTS
Cloud Levels
  • Few at 3,000' AGL

Jun-19@
07:00 UTC

Jun-19 @ 07:00 UTC

Jun-19@
21:00 UTC

Jun-19 @ 21:00 UTC

BECMG 1907/1909 06005KT

Becoming

Becoming Conditions expected by Wed, Jun 19, 2019 @ 09:00 UTC

Wind
  • 060° at 5 KTS
Cloud Levels
  • Few at 3,000' AGL

Jun-19@
21:00 UTC

Jun-19 @ 21:00 UTC

Jun-20@
03:00 UTC

Jun-20 @ 03:00 UTC

BECMG 1921/2000 13005KT

Becoming

Becoming Conditions expected by Thu, Jun 20, 2019 @ 00:00 UTC

Wind
  • 130° at 5 KTS
Cloud Levels
  • Few at 3,000' AGL

Jun-20@
03:00 UTC

Jun-20 @ 03:00 UTC

Jun-20@
12:00 UTC

Jun-20 @ 12:00 UTC

BECMG 2003/2006 32012KT

Becoming

Becoming Conditions expected by Thu, Jun 20, 2019 @ 06:00 UTC

Wind
  • 320° at 12 KTS
Cloud Levels
  • Few at 3,000' AGL